Ana Sayfa
METAR-TAF:

METAR-TAF

Havaalanları :

Salak

Maroua, Kamerun

Enlem: 10-27N, Boylam: 014-15E, yükseklik: 423 m

Güncel hava durumu gözlemi

Rapor saat 16:00 UTC de 12 saat ve 39 dakika önce yapıldı.
Rüzgar kuzey/kuzeydoğudan 7 kt, kuzeybatı ve doğu/kuzeydoğu arasında değişken
Sıcaklık 32°C
Nem 14%
Basınç 1012 hPa
Görüş mesafesi: 5000 m
yaygın toz

METAR: FKKL 181600Z 03007KT 320V070 5000 DU NSC 32/01 Q1012

Saat: 05:39 (04:39 UTC)

Tahmin

Rapor saat 05:00 UTC de 23 saat ve 39 dakika önce yapıldı.
Ayın 18'si saat 06 UTC'den ayın 18'si saat 18 UTC'ye kadar geçerli Tahmin
Rüzgar kuzeydoğudan 8 kt
Görüş mesafesi: 3000 m
yaygın toz
Geçici
ayın 18'si saat 08 UTC'den ayın 18'si saat 14 UTC'ye kadar
Görüş mesafesi: 1500 m
yaygın toz

TAF: FKKL 180500Z 1806/1818 05008KT 3000 DU NSC TEMPO 1808/1814 1500 DU

4.000'den fazla havaalanı için hava durumu gözlemleri ve tahminleri (METAR ve TAF raporları).

Kullanılabilir istasyonlar harita üzerinde sarı ve kırmızı noktalarla gösterilir.

İstasyonun adını görmek için fareyi noktanın üzerinde gezdirin.

Sonrasında hava gözlem ve tahminlerini görmek için tıklayın.

Haritayı değiştirmek için: yaklaştırmak için siyah artı işaretli yeşil düğmeye ve uzaklaştırmak için de eksi işaretli düğmeye hızla tıklayın; bitişik haritalar için yeşil okları kullanın.


METAR-TAF: